Time;durP1;ratioP1;P1;durP2;ratioP2;P2;SDS_P1;SDS_P2;PMS_P1;PMS_P2;Temp;Humidity;BMP_temperature;BMP_pressure;BME280_temperature;BME280_humidity;BME280_pressure;Samples;Min_cycle;Max_cycle;Signal;HPM_P1;HPM_P2
2024/01/26 00:02:06;;;;;;;;;;;;;;;14.58;100.00;101452.88;7338182;19;19919;-69
2024/01/26 00:04:33;;;;;;;;;;;;;;;14.64;100.00;101444.31;7339582;19;20067;-67
2024/01/26 00:07:00;;;;;;;;;;;;;;;14.65;100.00;101447.78;7334743;19;20423;-66
2024/01/26 00:09:27;;;;;;;;;;;;;;;14.63;100.00;101437.34;7328812;19;19938;-68
2024/01/26 00:11:54;;;;;;;;;;;;;;;14.63;100.00;101437.34;7334208;19;20879;-67
2024/01/26 00:14:21;;;;;;;;;;;;;;;14.63;100.00;101425.94;7338741;19;20676;-68
2024/01/26 00:16:48;;;;;;;;;;;;;;;14.60;100.00;101436.84;7334313;19;20570;-68
2024/01/26 00:19:15;;;;;;;;;;;;;;;14.61;100.00;101428.75;7341410;19;19918;-66
2024/01/26 00:21:42;;;;;;;;;;;;;;;14.63;100.00;101424.09;7336991;19;19953;-67
2024/01/26 00:24:09;;;;;;;;;;;;;;;14.65;100.00;101418.66;7332075;19;20550;-68
2024/01/26 00:26:36;;;;;;;;;;;;;;;14.63;100.00;101424.09;7330234;19;19927;-67
2024/01/26 00:29:03;;;;;;;;;;;;;;;14.66;100.00;101421.13;7330473;19;19980;-66
2024/01/26 00:31:30;;;;;;;;;;;;;;;14.69;100.00;101420.78;7343011;19;19915;-67
2024/01/26 00:33:57;;;;;;;;;;;;;;;14.70;100.00;101416.31;7354697;19;19929;-69
2024/01/26 00:36:24;;;;;;;;;;;;;;;14.69;100.00;101415.50;7354321;19;19978;-66
2024/01/26 00:38:50;;;;;;;;;;;;;;;14.64;100.00;101399.25;7354102;19;19921;-66
2024/01/26 00:41:17;;;;;;;;;;;;;;;14.62;100.00;101390.69;7354327;19;19915;-67
2024/01/26 00:43:44;;;;;;;;;;;;;;;14.62;100.00;101377.44;7347565;19;20908;-67
2024/01/26 00:46:11;;;;;;;;;;;;;;;14.58;100.00;101368.13;7348352;19;19919;-67
2024/01/26 00:48:38;;;;;;;;;;;;;;;14.60;100.00;101358.22;7345340;19;20554;-68
2024/01/26 00:51:08;;;;;;;;;;;;;;;14.54;100.00;101350.94;7345963;19;20807;-69
2024/01/26 00:53:35;;;;;;;;;;;;;;;14.53;100.00;101334.22;7345606;19;19987;-68
2024/01/26 00:56:01;;;;;;;;;;;;;;;14.51;100.00;101332.72;7343948;19;19979;-68
2024/01/26 00:58:29;;;;;;;;;;;;;;;14.49;100.00;101324.13;7344101;19;20736;-69
2024/01/26 01:00:56;;;;;;;;;;;;;;;14.46;100.00;101327.94;7340215;19;19926;-67
2024/01/26 01:03:23;;;;;;;;;;;;;;;14.49;100.00;101317.00;7335967;19;19945;-67
2024/01/26 01:05:50;;;;;;;;;;;;;;;14.46;100.00;101308.56;7336637;19;19998;-66
2024/01/26 01:08:18;;;;;;;;;;;;;;;14.46;100.00;101311.22;7353110;19;19935;-68
2024/01/26 01:10:45;;;;;;;;;;;;;;;14.46;100.00;101317.34;7351080;19;19934;-69
2024/01/26 01:13:12;;;;;;;;;;;;;;;14.47;100.00;101304.94;7357607;19;19914;-67
2024/01/26 01:15:40;;;;;;;;;;;;;;;14.48;100.00;101309.22;7349650;19;20189;-67
2024/01/26 01:18:07;;;;;;;;;;;;;;;14.45;100.00;101313.03;7340060;19;20243;-67
2024/01/26 01:20:34;;;;;;;;;;;;;;;14.50;100.00;101320.47;7352678;19;19914;-67
2024/01/26 01:23:01;;;;;;;;;;;;;;;14.48;100.00;101298.63;7362893;19;20040;-69
2024/01/26 01:25:29;;;;;;;;;;;;;;;14.45;100.00;101299.81;7350090;19;19922;-67
2024/01/26 01:27:56;;;;;;;;;;;;;;;14.40;100.00;101306.59;7343371;19;19990;-68
2024/01/26 01:30:22;;;;;;;;;;;;;;;14.35;100.00;101301.75;7351222;19;19925;-68
2024/01/26 01:32:49;;;;;;;;;;;;;;;14.36;100.00;101302.59;7350635;19;20392;-67
2024/01/26 01:35:16;;;;;;;;;;;;;;;14.40;100.00;101302.13;7337432;19;19947;-67
2024/01/26 01:37:43;;;;;;;;;;;;;;;14.41;100.00;101305.59;7340203;19;19994;-67
2024/01/26 01:40:10;;;;;;;;;;;;;;;14.43;100.00;101300.94;7333014;19;21176;-68
2024/01/26 01:42:37;;;;;;;;;;;;;;;14.41;100.00;101298.47;7340452;19;20689;-67
2024/01/26 01:45:14;;;;;;;;;;;;;;;14.46;100.00;101293.50;7339676;19;20040;-68
2024/01/26 01:47:41;;;;;;;;;;;;;;;14.46;100.00;101305.94;7342489;19;20245;-67
2024/01/26 01:50:09;;;;;;;;;;;;;;;14.43;100.00;101295.66;7342539;19;20343;-67
2024/01/26 01:52:41;;;;;;;;;;;;;;;14.45;100.00;101304.25;7343859;19;20018;-68
2024/01/26 01:55:10;;;;;;;;;;;;;;;14.47;100.00;101294.34;7347079;19;20363;-68
2024/01/26 01:57:38;;;;;;;;;;;;;;;14.47;100.00;101295.19;7330836;19;20596;-68
2024/01/26 02:00:05;;;;;;;;;;;;;;;14.42;100.00;101297.50;7336654;19;20280;-67
2024/01/26 02:02:32;;;;;;;;;;;;;;;14.38;100.00;101287.38;7340527;19;19922;-67
2024/01/26 02:04:59;;;;;;;;;;;;;;;14.36;100.00;101287.56;7338606;19;19915;-68
2024/01/26 02:07:26;;;;;;;;;;;;;;;14.34;100.00;101280.72;7337044;19;19923;-68
2024/01/26 02:09:53;;;;;;;;;;;;;;;14.38;100.00;101280.25;7338483;19;19927;-67
2024/01/26 02:12:25;;;;;;;;;;;;;;;14.37;100.00;101277.81;7344372;19;20352;-68
2024/01/26 02:14:52;;;;;;;;;;;;;;;14.34;100.00;101262.19;7343942;19;19967;-67
2024/01/26 02:17:19;;;;;;;;;;;;;;;14.29;100.00;101270.66;7346719;19;19919;-66
2024/01/26 02:19:46;;;;;;;;;;;;;;;14.28;100.00;101265.50;7349081;19;19998;-66
2024/01/26 02:22:13;;;;;;;;;;;;;;;14.25;100.00;101269.31;7345797;19;19915;-67
2024/01/26 02:24:40;;;;;;;;;;;;;;;14.29;100.00;101261.88;7344973;19;19953;-66
2024/01/26 02:27:07;;;;;;;;;;;;;;;14.29;100.00;101261.88;7342562;19;19923;-67
2024/01/26 02:29:34;;;;;;;;;;;;;;;14.28;100.00;101258.41;7324857;19;19926;-66
2024/01/26 02:32:01;;;;;;;;;;;;;;;14.26;100.00;101257.75;7345502;19;19933;-67
2024/01/26 02:34:28;;;;;;;;;;;;;;;14.29;100.00;101267.16;7339933;19;20162;-67
2024/01/26 02:36:55;;;;;;;;;;;;;;;14.32;100.00;101258.91;7341935;19;20328;-67
2024/01/26 02:39:22;;;;;;;;;;;;;;;14.31;100.00;101265.19;7333966;19;19930;-66
2024/01/26 02:41:49;;;;;;;;;;;;;;;14.34;100.00;101268.31;7345942;19;19927;-67
2024/01/26 02:44:16;;;;;;;;;;;;;;;14.36;100.00;101254.94;7342269;19;19919;-68
2024/01/26 02:46:45;;;;;;;;;;;;;;;14.36;100.00;101265.53;7337405;19;19922;-68
2024/01/26 02:49:12;;;;;;;;;;;;;;;14.39;100.00;101268.69;7326397;19;21537;-67
2024/01/26 02:51:39;;;;;;;;;;;;;;;14.40;100.00;101258.94;7341549;19;19926;-68
2024/01/26 02:54:05;;;;;;;;;;;;;;;14.39;100.00;101244.03;7342218;19;19926;-68
2024/01/26 02:56:32;;;;;;;;;;;;;;;14.38;100.00;101255.59;7336946;19;19942;-67
2024/01/26 02:59:04;;;;;;;;;;;;;;;14.38;100.00;101266.19;7343692;19;19915;-69
2024/01/26 03:01:31;;;;;;;;;;;;;;;14.37;100.00;101262.75;7341232;19;20749;-67
2024/01/26 03:03:59;;;;;;;;;;;;;;;14.37;100.00;101265.41;7334104;19;19926;-66
2024/01/26 03:06:26;;;;;;;;;;;;;;;14.36;100.00;101266.38;7335897;19;19926;-67
2024/01/26 03:08:53;;;;;;;;;;;;;;;14.36;100.00;101268.16;7341809;19;19955;-66
2024/01/26 03:11:19;;;;;;;;;;;;;;;14.34;100.00;101256.91;7336122;19;20529;-68
2024/01/26 03:13:46;;;;;;;;;;;;;;;14.36;100.00;101276.13;7338561;19;19923;-68
2024/01/26 03:16:13;;;;;;;;;;;;;;;14.36;100.00;101252.28;7337157;19;19923;-67
2024/01/26 03:18:40;;;;;;;;;;;;;;;14.38;100.00;101258.25;7342185;19;19927;-67
2024/01/26 03:21:07;;;;;;;;;;;;;;;14.37;100.00;101257.44;7344755;19;20677;-67
2024/01/26 03:23:34;;;;;;;;;;;;;;;14.37;100.00;101253.97;7341171;19;20694;-68
2024/01/26 03:26:01;;;;;;;;;;;;;;;14.35;100.00;101256.75;7345037;19;19922;-67
2024/01/26 03:28:29;;;;;;;;;;;;;;;14.38;100.00;101255.59;7341583;19;20005;-66
2024/01/26 03:30:56;;;;;;;;;;;;;;;14.36;100.00;101263.72;7330195;19;19931;-67
2024/01/26 03:33:23;;;;;;;;;;;;;;;14.39;100.00;101259.91;7337398;19;20335;-68
2024/01/26 03:35:50;;;;;;;;;;;;;;;14.39;100.00;101260.75;7339949;19;19923;-67
2024/01/26 03:38:17;;;;;;;;;;;;;;;14.37;100.00;101265.41;7331926;19;19922;-66
2024/01/26 03:40:44;;;;;;;;;;;;;;;14.36;100.00;101266.38;7349046;19;19961;-68
2024/01/26 03:43:11;;;;;;;;;;;;;;;14.36;100.00;101262.88;7346336;19;20374;-68
2024/01/26 03:45:38;;;;;;;;;;;;;;;14.34;100.00;101260.38;7345784;19;19963;-66
2024/01/26 03:48:05;;;;;;;;;;;;;;;14.35;100.00;101258.56;7341248;19;20657;-66
2024/01/26 03:50:33;;;;;;;;;;;;;;;14.35;100.00;101253.28;7345569;19;20545;-68
2024/01/26 03:53:00;;;;;;;;;;;;;;;14.36;100.00;101258.44;7346312;19;19914;-69
2024/01/26 03:55:27;;;;;;;;;;;;;;;14.37;100.00;101259.28;7344464;19;19933;-66
2024/01/26 03:57:53;;;;;;;;;;;;;;;14.36;100.00;101250.50;7342579;19;19925;-68
2024/01/26 04:00:20;;;;;;;;;;;;;;;14.36;100.00;101260.22;7344289;19;21483;-67
2024/01/26 04:02:47;;;;;;;;;;;;;;;14.36;100.00;101249.63;7330718;19;19923;-68
2024/01/26 04:05:14;;;;;;;;;;;;;;;14.32;100.00;101253.63;7330328;19;19922;-68
2024/01/26 04:07:41;;;;;;;;;;;;;;;14.36;100.00;101257.56;7333192;19;20030;-66
2024/01/26 04:10:08;;;;;;;;;;;;;;;14.38;100.00;101258.25;7345533;19;19915;-68
2024/01/26 04:12:35;;;;;;;;;;;;;;;14.38;100.00;101252.97;7354742;19;19930;-67
2024/01/26 04:15:02;;;;;;;;;;;;;;;14.31;100.00;101244.84;7350512;19;21101;-66
2024/01/26 04:17:29;;;;;;;;;;;;;;;14.32;100.00;101245.69;7348029;19;19926;-66
2024/01/26 04:19:56;;;;;;;;;;;;;;;14.23;100.00;101242.19;7346386;19;19948;-68
2024/01/26 04:22:23;;;;;;;;;;;;;;;14.30;100.00;101250.28;7347298;19;20588;-69
2024/01/26 04:24:50;;;;;;;;;;;;;;;14.27;100.00;101243.53;7346414;19;19923;-67
2024/01/26 04:27:17;;;;;;;;;;;;;;;14.28;100.00;101247.81;7341087;19;20533;-66
2024/01/26 04:29:49;;;;;;;;;;;;;;;14.28;100.00;101245.16;7346023;19;19926;-67
2024/01/26 04:32:16;;;;;;;;;;;;;;;14.25;100.00;101256.09;7343639;19;21689;-68
2024/01/26 04:34:45;;;;;;;;;;;;;;;14.26;100.00;101252.47;7337143;19;21497;-66
2024/01/26 04:37:12;;;;;;;;;;;;;;;14.26;100.00;101256.91;7347604;19;19935;-67
2024/01/26 04:39:41;;;;;;;;;;;;;;;14.27;100.00;101254.13;7353604;19;19922;-67
2024/01/26 04:42:08;;;;;;;;;;;;;;;14.25;100.00;101266.69;7343395;19;20230;-67
2024/01/26 04:44:35;;;;;;;;;;;;;;;14.29;100.00;101259.22;7346304;19;20010;-67
2024/01/26 04:47:02;;;;;;;;;;;;;;;14.31;100.00;101262.53;7352762;19;19922;-69
2024/01/26 04:49:29;;;;;;;;;;;;;;;14.34;100.00;101263.03;7346013;19;19927;-67
2024/01/26 04:51:56;;;;;;;;;;;;;;;14.36;100.00;101289.34;7346427;19;19964;-67
2024/01/26 04:54:23;;;;;;;;;;;;;;;14.40;100.00;101282.75;7344968;19;19910;-67
2024/01/26 04:56:50;;;;;;;;;;;;;;;14.42;100.00;101288.72;7351767;19;20245;-68
2024/01/26 04:59:17;;;;;;;;;;;;;;;14.41;100.00;101298.47;7349800;19;20256;-67
2024/01/26 05:01:44;;;;;;;;;;;;;;;14.40;100.00;101323.31;7346680;19;19933;-68
2024/01/26 05:04:10;;;;;;;;;;;;;;;14.39;100.00;101392.28;7348625;19;20543;-67
2024/01/26 05:06:37;;;;;;;;;;;;;;;14.30;100.00;101382.66;7338024;19;19918;-67
2024/01/26 05:09:05;;;;;;;;;;;;;;;14.05;100.00;101390.56;7345920;19;19926;-68
2024/01/26 05:11:32;;;;;;;;;;;;;;;13.89;97.87;101371.97;7348855;19;19911;-69
2024/01/26 05:13:59;;;;;;;;;;;;;;;13.86;98.03;101387.34;7343598;19;21015;-67
2024/01/26 05:16:26;;;;;;;;;;;;;;;13.79;98.55;101381.88;7338593;19;20829;-67
2024/01/26 05:18:52;;;;;;;;;;;;;;;13.64;96.27;101388.75;7347114;19;19918;-68
2024/01/26 05:21:19;;;;;;;;;;;;;;;13.60;95.14;101380.31;7347865;19;19938;-67
2024/01/26 05:23:49;;;;;;;;;;;;;;;13.57;94.71;101400.94;7344416;19;19914;-67
2024/01/26 05:26:18;;;;;;;;;;;;;;;13.52;94.34;101398.75;7356055;19;20704;-67
2024/01/26 05:28:45;;;;;;;;;;;;;;;13.48;92.62;101389.50;7357545;19;19923;-69
2024/01/26 05:31:12;;;;;;;;;;;;;;;13.45;91.67;101408.34;7357317;19;19914;-68
2024/01/26 05:33:39;;;;;;;;;;;;;;;13.41;90.30;101414.09;7337821;19;19918;-68
2024/01/26 05:36:06;;;;;;;;;;;;;;;13.25;85.29;101434.16;7349411;19;19914;-67
2024/01/26 05:38:33;;;;;;;;;;;;;;;13.23;84.60;101438.75;7343379;19;19986;-68
2024/01/26 05:41:00;;;;;;;;;;;;;;;13.21;83.64;101453.91;7347382;19;20407;-70
2024/01/26 05:43:27;;;;;;;;;;;;;;;13.19;83.87;101457.72;7352020;19;19910;-67
2024/01/26 05:45:54;;;;;;;;;;;;;;;13.18;82.90;101456.88;7341639;19;19915;-68
2024/01/26 05:48:21;;;;;;;;;;;;;;;13.08;80.92;101471.97;7346302;19;19923;-69
2024/01/26 05:50:48;;;;;;;;;;;;;;;13.07;81.72;101483.50;7349338;19;19919;-67
2024/01/26 05:53:15;;;;;;;;;;;;;;;13.04;82.74;101497.03;7347021;19;19919;-68
2024/01/26 05:55:42;;;;;;;;;;;;;;;13.01;82.14;101501.78;7339376;19;19925;-68
2024/01/26 05:58:09;;;;;;;;;;;;;;;13.02;84.00;101514.00;7348586;19;19922;-66
2024/01/26 06:00:36;;;;;;;;;;;;;;;13.05;85.28;101521.66;7342105;19;19911;-67
2024/01/26 06:03:03;;;;;;;;;;;;;;;13.05;85.00;101530.41;7344751;19;19923;-69
2024/01/26 06:05:30;;;;;;;;;;;;;;;13.02;83.03;101541.25;7340327;19;19919;-66
2024/01/26 06:07:59;;;;;;;;;;;;;;;13.00;84.17;101553.81;7349335;19;20504;-68
2024/01/26 06:10:26;;;;;;;;;;;;;;;13.01;83.75;101565.19;7335223;19;19919;-67
2024/01/26 06:12:52;;;;;;;;;;;;;;;13.03;85.76;101587.00;7344375;19;19919;-67
2024/01/26 06:15:19;;;;;;;;;;;;;;;12.96;84.85;101597.34;7347044;19;19998;-67
2024/01/26 06:17:47;;;;;;;;;;;;;;;12.96;84.35;101593.84;7348062;19;19926;-69
2024/01/26 06:20:14;;;;;;;;;;;;;;;12.91;83.09;101604.88;7345296;19;20070;-66
2024/01/26 06:22:41;;;;;;;;;;;;;;;12.84;82.53;101620.50;7340937;19;19933;-68
2024/01/26 06:25:08;;;;;;;;;;;;;;;12.82;82.93;101634.81;7345171;19;19915;-68
2024/01/26 06:27:35;;;;;;;;;;;;;;;12.81;82.98;101644.56;7350462;19;19923;-68
2024/01/26 06:30:02;;;;;;;;;;;;;;;12.80;83.88;101652.59;7346732;19;19919;-68
2024/01/26 06:32:29;;;;;;;;;;;;;;;12.75;83.19;101671.53;7342514;19;21641;-67
2024/01/26 06:34:56;;;;;;;;;;;;;;;12.64;80.45;101679.69;7345827;19;20482;-69
2024/01/26 06:37:30;;;;;;;;;;;;;;;12.61;78.79;101684.38;7339959;19;20901;-67
2024/01/26 06:39:56;;;;;;;;;;;;;;;12.57;79.22;101696.22;7337215;19;19918;-68
2024/01/26 06:42:25;;;;;;;;;;;;;;;12.54;78.00;101713.19;7351197;19;19991;-68
2024/01/26 06:44:55;;;;;;;;;;;;;;;12.49;74.03;101743.63;7347173;19;20413;-69
2024/01/26 06:47:23;;;;;;;;;;;;;;;12.39;72.66;101764.78;7346099;19;19919;-70
2024/01/26 06:49:50;;;;;;;;;;;;;;;12.28;70.98;101767.56;7348698;19;19942;-68
2024/01/26 06:52:17;;;;;;;;;;;;;;;12.24;71.85;101764.34;7345118;19;19914;-68
2024/01/26 06:54:44;;;;;;;;;;;;;;;12.13;70.03;101782.16;7347054;19;20430;-68
2024/01/26 06:57:10;;;;;;;;;;;;;;;12.07;69.20;101780.06;7344995;19;19915;-67
2024/01/26 06:59:38;;;;;;;;;;;;;;;11.97;66.18;101796.72;7342837;19;19930;-67
2024/01/26 07:02:05;;;;;;;;;;;;;;;11.88;66.37;101794.91;7344137;19;19927;-68
2024/01/26 07:04:32;;;;;;;;;;;;;;;11.86;68.31;101817.09;7345730;19;19922;-68
2024/01/26 07:06:59;;;;;;;;;;;;;;;11.80;68.78;101809.72;7344637;19;20009;-68
2024/01/26 07:09:26;;;;;;;;;;;;;;;11.69;65.86;101836.19;7345584;19;19922;-68
2024/01/26 07:11:53;;;;;;;;;;;;;;;11.61;66.52;101841.31;7342528;19;19915;-68
2024/01/26 07:14:20;;;;;;;;;;;;;;;11.56;65.53;101839.91;7339135;19;19941;-68
2024/01/26 07:16:47;;;;;;;;;;;;;;;11.52;65.88;101864.03;7343842;19;19917;-67
2024/01/26 07:19:13;;;;;;;;;;;;;;;11.46;65.62;101862.75;7330586;19;19925;-66
2024/01/26 07:21:41;;;;;;;;;;;;;;;11.44;67.12;101877.84;7333018;19;19919;-68
2024/01/26 07:24:08;;;;;;;;;;;;;;;11.35;66.59;101870.75;7334031;19;21543;-67
2024/01/26 07:26:35;;;;;;;;;;;;;;;11.31;67.02;101877.25;7344164;19;20371;-67
2024/01/26 07:29:02;;;;;;;;;;;;;;;11.25;67.04;101887.47;7345241;19;19937;-67
2024/01/26 07:31:29;;;;;;;;;;;;;;;11.25;67.79;101887.47;7336662;19;19990;-69
2024/01/26 07:33:56;;;;;;;;;;;;;;;11.23;67.23;101898.13;7343535;19;20745;-67
2024/01/26 07:36:23;;;;;;;;;;;;;;;11.23;68.44;101906.03;7339332;19;19981;-68
2024/01/26 07:38:50;;;;;;;;;;;;;;;11.21;68.43;101928.22;7341378;19;19927;-67
2024/01/26 07:41:17;;;;;;;;;;;;;;;11.17;68.85;101930.28;7346826;19;19998;-69
2024/01/26 07:43:43;;;;;;;;;;;;;;;11.12;67.20;101935.09;7347237;19;19934;-69
2024/01/26 07:46:10;;;;;;;;;;;;;;;11.14;68.11;101946.34;7347448;19;19959;-67
2024/01/26 07:48:37;;;;;;;;;;;;;;;11.12;66.99;101951.72;7338035;19;19937;-67
2024/01/26 07:51:04;;;;;;;;;;;;;;;11.02;65.24;101971.09;7338129;19;19982;-68
2024/01/26 07:53:31;;;;;;;;;;;;;;;11.02;67.66;101973.72;7349166;19;19916;-69
2024/01/26 07:55:58;;;;;;;;;;;;;;;10.99;67.74;101987.94;7348224;19;19938;-70
2024/01/26 07:58:25;;;;;;;;;;;;;;;10.97;67.30;101989.06;7353524;19;19923;-68
2024/01/26 08:00:53;;;;;;;;;;;;;;;10.96;67.61;101982.13;7348235;19;19911;-68
2024/01/26 08:03:19;;;;;;;;;;;;;;;10.92;67.81;101996.50;7353366;19;19915;-69
2024/01/26 08:05:47;;;;;;;;;;;;;;;10.87;66.18;102017.91;7350528;19;19937;-68
2024/01/26 08:08:13;;;;;;;;;;;;;;;10.86;66.58;102002.25;7352908;19;20553;-70
2024/01/26 08:10:40;;;;;;;;;;;;;;;10.85;67.32;102006.69;7341181;19;20005;-68
2024/01/26 08:13:07;;;;;;;;;;;;;;;10.80;65.88;102023.81;7348593;19;19926;-67
2024/01/26 08:15:34;;;;;;;;;;;;;;;10.76;65.99;102039.03;7346369;19;19915;-67
2024/01/26 08:18:01;;;;;;;;;;;;;;;10.73;65.53;102036.63;7338874;19;20530;-68
2024/01/26 08:20:28;;;;;;;;;;;;;;;10.73;65.64;102045.38;7341738;19;19990;-69
2024/01/26 08:22:56;;;;;;;;;;;;;;;10.76;66.49;102051.34;7349274;19;19922;-68
2024/01/26 08:25:24;;;;;;;;;;;;;;;10.77;66.68;102053.84;7338728;19;19982;-69
2024/01/26 08:27:53;;;;;;;;;;;;;;;10.78;67.17;102058.16;7338562;19;19943;-69
2024/01/26 08:30:23;;;;;;;;;;;;;;;10.75;66.76;102068.09;7339862;19;19911;-68
2024/01/26 08:32:51;;;;;;;;;;;;;;;10.71;67.34;102072.78;7336641;19;19998;-68
2024/01/26 08:35:18;;;;;;;;;;;;;;;10.71;66.88;102081.53;7332565;19;19932;-68
2024/01/26 08:37:45;;;;;;;;;;;;;;;10.70;66.06;102085.13;7349232;19;19919;-67
2024/01/26 08:40:13;;;;;;;;;;;;;;;10.71;65.65;102086.78;7349436;19;19962;-68
2024/01/26 08:42:40;;;;;;;;;;;;;;;10.70;65.23;102098.28;7342242;19;20687;-69
2024/01/26 08:45:08;;;;;;;;;;;;;;;10.71;66.38;102101.75;7342861;19;19931;-67
2024/01/26 08:47:35;;;;;;;;;;;;;;;10.71;65.27;102112.28;7336451;19;19934;-68
2024/01/26 08:50:02;;;;;;;;;;;;;;;10.73;64.41;102110.34;7345744;19;20307;-68
2024/01/26 08:52:32;;;;;;;;;;;;;;;10.76;65.19;102132.97;7345764;19;19930;-69
2024/01/26 08:54:59;;;;;;;;;;;;;;;10.75;65.04;102137.38;7345371;19;19927;-68
2024/01/26 08:57:29;;;;;;;;;;;;;;;10.73;65.03;102152.47;7350025;19;19914;-68
2024/01/26 08:59:55;;;;;;;;;;;;;;;10.73;65.40;102161.19;7349606;19;20648;-68
2024/01/26 09:02:22;;;;;;;;;;;;;;;10.72;65.35;102171.84;7351052;19;20340;-69
2024/01/26 09:04:49;;;;;;;;;;;;;;;10.74;65.85;102183.09;7347327;19;19923;-67
2024/01/26 09:07:19;;;;;;;;;;;;;;;10.76;65.95;102183.81;7345688;19;19926;-68
2024/01/26 09:09:50;;;;;;;;;;;;;;;10.73;65.55;102189.31;7346228;19;21854;-68
2024/01/26 09:12:17;;;;;;;;;;;;;;;10.81;70.09;102197.47;7352052;19;19945;-69
2024/01/26 09:14:44;;;;;;;;;;;;;;;10.90;73.14;102207.28;7351336;19;19919;-69
2024/01/26 09:17:11;;;;;;;;;;;;;;;10.88;66.37;102206.53;7343931;19;21086;-68
2024/01/26 09:19:38;;;;;;;;;;;;;;;10.90;67.74;102223.06;7349725;19;20516;-67
2024/01/26 09:22:07;;;;;;;;;;;;;;;10.85;67.15;102219.13;7342496;19;19915;-68
2024/01/26 09:24:34;;;;;;;;;;;;;;;10.90;70.44;102238.88;7340526;19;21169;-68
2024/01/26 09:27:01;;;;;;;;;;;;;;;10.91;68.52;102258.13;7331850;19;21626;-67
2024/01/26 09:29:28;;;;;;;;;;;;;;;10.82;64.22;102261.50;7334106;19;19911;-68
2024/01/26 09:31:56;;;;;;;;;;;;;;;10.83;64.20;102265.78;7351835;19;20681;-67
2024/01/26 09:34:23;;;;;;;;;;;;;;;10.86;65.35;102279.56;7353399;19;20287;-68
2024/01/26 09:36:50;;;;;;;;;;;;;;;10.87;62.96;102268.06;7347893;19;20226;-68
2024/01/26 09:39:21;;;;;;;;;;;;;;;10.87;64.71;102283.03;7340354;19;19922;-68
2024/01/26 09:41:48;;;;;;;;;;;;;;;10.87;63.49;102285.69;7350739;19;19925;-68
2024/01/26 09:44:15;;;;;;;;;;;;;;;10.86;64.27;102292.72;7348341;19;19989;-68
2024/01/26 09:46:43;;;;;;;;;;;;;;;10.85;65.02;102306.84;7352960;19;20259;-69
2024/01/26 09:49:10;;;;;;;;;;;;;;;10.85;64.43;102327.91;7346153;19;20657;-67
2024/01/26 09:51:37;;;;;;;;;;;;;;;10.86;64.45;102320.84;7352248;19;20554;-68
2024/01/26 09:54:07;;;;;;;;;;;;;;;10.88;63.82;102332.09;7344879;19;20592;-68
2024/01/26 09:56:37;;;;;;;;;;;;;;;10.88;62.96;102346.09;7349571;19;20350;-69
2024/01/26 09:59:08;;;;;;;;;;;;;;;10.94;62.79;102353.53;7347277;19;20255;-68
2024/01/26 10:01:35;;;;;;;;;;;;;;;10.96;63.37;102363.97;7357315;19;19918;-69
2024/01/26 10:04:02;;;;;;;;;;;;;;;10.99;62.79;102371.63;7345569;19;19945;-69
2024/01/26 10:06:30;;;;;;;;;;;;;;;11.05;62.11;102381.69;7343086;19;19915;-69
2024/01/26 10:08:57;;;;;;;;;;;;;;;11.01;61.55;102386.34;7346151;19;20002;-68
2024/01/26 10:11:24;;;;;;;;;;;;;;;11.02;60.77;102392.47;7341152;19;19926;-67
2024/01/26 10:13:51;;;;;;;;;;;;;;;11.02;61.29;102392.47;7351976;19;20806;-68
2024/01/26 10:16:18;;;;;;;;;;;;;;;11.00;59.15;102404.91;7343775;19;19922;-69
2024/01/26 10:18:47;;;;;;;;;;;;;;;11.01;60.00;102415.34;7351974;19;19948;-69
2024/01/26 10:21:16;;;;;;;;;;;;;;;11.00;59.04;102424.19;7345913;19;19949;-67
2024/01/26 10:23:43;;;;;;;;;;;;;;;10.97;59.89;102440.19;7344977;19;19918;-68
2024/01/26 10:26:11;;;;;;;;;;;;;;;10.99;59.29;102437.47;7336143;19;20523;-69
2024/01/26 10:28:38;;;;;;;;;;;;;;;10.98;59.17;102446.31;7346482;19;20573;-71
2024/01/26 10:31:05;;;;;;;;;;;;;;;10.95;59.92;102446.53;7343179;19;19922;-69
2024/01/26 10:33:33;;;;;;;;;;;;;;;10.98;60.98;102455.06;7352246;19;20633;-67
2024/01/26 10:36:01;;;;;;;;;;;;;;;11.00;59.60;102461.06;7352754;19;19922;-68
2024/01/26 10:38:32;;;;;;;;;;;;;;;11.05;59.17;102458.06;7341604;19;19956;-69
2024/01/26 10:41:04;;;;;;;;;;;;;;;11.04;57.77;102453.75;7346616;19;19922;-69
2024/01/26 10:43:33;;;;;;;;;;;;;;;11.05;58.31;102455.44;7343337;19;19914;-67
2024/01/26 10:46:01;;;;;;;;;;;;;;;10.99;56.55;102448.00;7351587;19;21517;-68
2024/01/26 10:48:29;;;;;;;;;;;;;;;10.98;56.41;102464.75;7346625;19;19923;-68
2024/01/26 10:50:57;;;;;;;;;;;;;;;10.97;55.97;102473.63;7343793;19;20381;-69
2024/01/26 10:53:26;;;;;;;;;;;;;;;10.99;56.31;102485.72;7348395;19;21536;-68
2024/01/26 10:55:54;;;;;;;;;;;;;;;10.97;57.50;102487.59;7338729;19;19930;-67
2024/01/26 10:58:22;;;;;;;;;;;;;;;11.01;57.11;102494.34;7344713;19;20284;-67
2024/01/26 11:00:49;;;;;;;;;;;;;;;11.05;56.27;102503.69;7336691;19;19914;-68
2024/01/26 11:03:16;;;;;;;;;;;;;;;11.10;56.22;102496.28;7339478;19;19970;-68
2024/01/26 11:05:49;;;;;;;;;;;;;;;11.11;57.22;102511.16;7347373;19;19918;-69
2024/01/26 11:08:20;;;;;;;;;;;;;;;11.10;54.04;102520.00;7343575;19;20249;-65
2024/01/26 11:10:47;;;;;;;;;;;;;;;11.12;55.75;102519.88;7344156;19;20010;-68
2024/01/26 11:13:15;;;;;;;;;;;;;;;11.10;56.17;102506.81;7344435;19;20022;-67
2024/01/26 11:15:43;;;;;;;;;;;;;;;11.13;57.21;102516.28;7342125;19;19938;-68
2024/01/26 11:18:25;;;;;;;;;;;;;;;11.12;55.40;102520.69;7345851;19;20011;-69
2024/01/26 11:20:53;;;;;;;;;;;;;;;11.14;55.68;102528.50;7344291;19;20820;-66
2024/01/26 11:23:21;;;;;;;;;;;;;;;11.17;55.05;102528.28;7344737;19;19927;-68
2024/01/26 11:25:53;;;;;;;;;;;;;;;11.21;55.71;102529.72;7343700;19;19930;-68
2024/01/26 11:28:25;;;;;;;;;;;;;;;11.20;54.51;102535.09;7349290;19;19930;-69
2024/01/26 11:30:59;;;;;;;;;;;;;;;11.23;53.77;102551.53;7337800;19;19922;-66
2024/01/26 11:33:37;;;;;;;;;;;;;;;11.26;53.62;102577.66;7344838;19;19929;-66
2024/01/26 11:36:06;;;;;;;;;;;;;;;11.26;53.57;102572.38;7344502;19;20027;-68
2024/01/26 11:38:34;;;;;;;;;;;;;;;11.32;54.85;102584.28;7340645;19;19915;-68
2024/01/26 11:41:01;;;;;;;;;;;;;;;11.34;54.49;102588.47;7346234;19;19991;-69
2024/01/26 11:43:28;;;;;;;;;;;;;;;11.35;53.34;102584.88;7345867;19;19970;-69
2024/01/26 11:45:56;;;;;;;;;;;;;;;11.38;53.97;102594.34;7348310;19;19993;-67
2024/01/26 11:48:24;;;;;;;;;;;;;;;11.37;54.26;102585.63;7350750;19;20677;-68
2024/01/26 11:50:51;;;;;;;;;;;;;;;11.45;55.10;102585.03;7346268;19;19926;-67
2024/01/26 11:53:19;;;;;;;;;;;;;;;11.45;55.04;102580.59;7347173;19;19997;-67
2024/01/26 11:55:46;;;;;;;;;;;;;;;11.49;55.13;102576.78;7343524;19;19919;-67
2024/01/26 11:58:16;;;;;;;;;;;;;;;11.50;53.43;102582.88;7343040;19;20546;-68
2024/01/26 12:00:43;;;;;;;;;;;;;;;11.48;53.56;102582.16;7349464;19;20654;-67
2024/01/26 12:03:12;;;;;;;;;;;;;;;11.46;52.16;102577.00;7341894;19;19941;-67
2024/01/26 12:05:39;;;;;;;;;;;;;;;11.48;55.09;102577.72;7345901;19;19971;-68
2024/01/26 12:08:06;;;;;;;;;;;;;;;11.47;53.73;102596.31;7340839;19;20589;-68
2024/01/26 12:10:34;;;;;;;;;;;;;;;11.48;53.14;102585.63;7342797;19;19998;-67
2024/01/26 12:13:03;;;;;;;;;;;;;;;11.49;51.40;102584.69;7343130;19;19919;-67
2024/01/26 12:15:38;;;;;;;;;;;;;;;11.50;52.28;102591.63;7345699;19;19919;-68
2024/01/26 12:18:09;;;;;;;;;;;;;;;11.51;52.44;102598.59;7340309;19;20248;-67
2024/01/26 12:20:36;;;;;;;;;;;;;;;11.49;52.05;102602.28;7343076;19;20712;-67
2024/01/26 12:23:04;;;;;;;;;;;;;;;11.51;53.25;102600.38;7343608;19;21510;-68
2024/01/26 12:25:31;;;;;;;;;;;;;;;11.46;52.63;102613.91;7339291;19;20362;-67
2024/01/26 12:28:05;;;;;;;;;;;;;;;11.52;53.71;102610.81;7342101;19;19998;-67
2024/01/26 12:30:32;;;;;;;;;;;;;;;11.53;52.85;102607.22;7346884;19;19930;-67
2024/01/26 12:33:09;;;;;;;;;;;;;;;11.53;52.77;102603.72;7349880;19;21101;-69
2024/01/26 12:35:42;;;;;;;;;;;;;;;11.58;53.01;102612.13;7349783;19;19971;-67